sensor_id;sensor_type;location;lat;lon;timestamp;pressure;altitude;pressure_sealevel;temperature;humidity
21504;BME280;10913;51.992;9.228;2022-12-13T00:00:43;100091.72;;;-5.96;100.00
21504;BME280;10913;51.992;9.228;2022-12-13T00:03:08;100087.38;;;-5.97;100.00
21504;BME280;10913;51.992;9.228;2022-12-13T00:05:34;100082.25;;;-5.97;100.00
21504;BME280;10913;51.992;9.228;2022-12-13T00:08:00;100077.91;;;-5.98;100.00
21504;BME280;10913;51.992;9.228;2022-12-13T00:10:26;100077.09;;;-5.97;100.00
21504;BME280;10913;51.992;9.228;2022-12-13T00:12:52;100079.53;;;-6.00;100.00
21504;BME280;10913;51.992;9.228;2022-12-13T00:15:18;100077.75;;;-6.01;100.00
21504;BME280;10913;51.992;9.228;2022-12-13T00:17:43;100077.59;;;-6.04;99.45
21504;BME280;10913;51.992;9.228;2022-12-13T00:20:10;100070.94;;;-6.15;99.04
21504;BME280;10913;51.992;9.228;2022-12-13T00:22:35;100074.00;;;-6.22;99.13
21504;BME280;10913;51.992;9.228;2022-12-13T00:25:01;100066.91;;;-6.26;99.92
21504;BME280;10913;51.992;9.228;2022-12-13T00:27:26;100074.53;;;-6.28;100.00
21504;BME280;10913;51.992;9.228;2022-12-13T00:29:51;100067.00;;;-6.24;100.00
21504;BME280;10913;51.992;9.228;2022-12-13T00:32:17;100068.78;;;-6.23;100.00
21504;BME280;10913;51.992;9.228;2022-12-13T00:34:42;100074.09;;;-6.20;100.00
21504;BME280;10913;51.992;9.228;2022-12-13T00:37:07;100064.59;;;-6.21;100.00
21504;BME280;10913;51.992;9.228;2022-12-13T00:39:33;100077.59;;;-6.18;100.00
21504;BME280;10913;51.992;9.228;2022-12-13T00:41:58;100064.84;;;-6.17;100.00
21504;BME280;10913;51.992;9.228;2022-12-13T00:44:23;100067.66;;;-6.12;100.00
21504;BME280;10913;51.992;9.228;2022-12-13T00:46:49;100059.88;;;-6.14;100.00
21504;BME280;10913;51.992;9.228;2022-12-13T00:49:17;100058.28;;;-6.12;100.00
21504;BME280;10913;51.992;9.228;2022-12-13T00:51:43;100052.31;;;-6.11;100.00
21504;BME280;10913;51.992;9.228;2022-12-13T00:54:09;100055.97;;;-6.07;100.00
21504;BME280;10913;51.992;9.228;2022-12-13T00:56:36;100063.13;;;-6.02;100.00
21504;BME280;10913;51.992;9.228;2022-12-13T00:59:02;100058.13;;;-5.99;100.00
21504;BME280;10913;51.992;9.228;2022-12-13T01:01:29;100063.53;;;-5.94;100.00
21504;BME280;10913;51.992;9.228;2022-12-13T01:03:57;100061.22;;;-5.89;100.00
21504;BME280;10913;51.992;9.228;2022-12-13T01:06:43;100057.97;;;-5.85;100.00
21504;BME280;10913;51.992;9.228;2022-12-13T01:09:18;100059.91;;;-5.81;100.00
21504;BME280;10913;51.992;9.228;2022-12-13T01:11:44;100055.09;;;-5.75;100.00
21504;BME280;10913;51.992;9.228;2022-12-13T01:14:10;100057.03;;;-5.71;100.00
21504;BME280;10913;51.992;9.228;2022-12-13T01:16:35;100052.22;;;-5.65;100.00
21504;BME280;10913;51.992;9.228;2022-12-13T01:19:01;100055.94;;;-5.60;100.00
21504;BME280;10913;51.992;9.228;2022-12-13T01:21:27;100063.13;;;-5.53;100.00
21504;BME280;10913;51.992;9.228;2022-12-13T01:23:52;100065.88;;;-5.50;100.00
21504;BME280;10913;51.992;9.228;2022-12-13T01:26:20;100060.97;;;-5.45;100.00
21504;BME280;10913;51.992;9.228;2022-12-13T01:28:46;100067.19;;;-5.42;100.00
21504;BME280;10913;51.992;9.228;2022-12-13T01:31:14;100069.16;;;-5.36;100.00
21504;BME280;10913;51.992;9.228;2022-12-13T01:33:40;100066.75;;;-5.33;100.00
21504;BME280;10913;51.992;9.228;2022-12-13T01:36:09;100068.63;;;-5.31;100.00
21504;BME280;10913;51.992;9.228;2022-12-13T01:38:35;100072.16;;;-5.29;100.00
21504;BME280;10913;51.992;9.228;2022-12-13T01:41:01;100068.88;;;-5.26;100.00
21504;BME280;10913;51.992;9.228;2022-12-13T01:46:02;100068.50;;;-5.16;100.00
21504;BME280;10913;51.992;9.228;2022-12-13T01:48:30;100067.16;;;-5.09;100.00
21504;BME280;10913;51.992;9.228;2022-12-13T01:51:00;100071.66;;;-5.05;100.00
21504;BME280;10913;51.992;9.228;2022-12-13T01:53:29;100063.94;;;-5.05;100.00
21504;BME280;10913;51.992;9.228;2022-12-13T01:56:01;100061.44;;;-5.04;100.00
21504;BME280;10913;51.992;9.228;2022-12-13T01:58:28;100058.94;;;-5.02;100.00
21504;BME280;10913;51.992;9.228;2022-12-13T02:00:55;100057.19;;;-5.03;100.00
21504;BME280;10913;51.992;9.228;2022-12-13T02:03:22;100053.00;;;-5.01;100.00
21504;BME280;10913;51.992;9.228;2022-12-13T02:06:14;100045.25;;;-5.01;100.00
21504;BME280;10913;51.992;9.228;2022-12-13T02:08:41;100049.72;;;-4.97;100.00
21504;BME280;10913;51.992;9.228;2022-12-13T02:11:08;100047.16;;;-4.97;100.00
21504;BME280;10913;51.992;9.228;2022-12-13T02:13:34;100044.75;;;-4.94;100.00
21504;BME280;10913;51.992;9.228;2022-12-13T02:22:13;100044.09;;;-4.90;100.00
21504;BME280;10913;51.992;9.228;2022-12-13T02:28:23;100037.19;;;-4.91;100.00
21504;BME280;10913;51.992;9.228;2022-12-13T02:30:57;100040.72;;;-4.89;100.00
21504;BME280;10913;51.992;9.228;2022-12-13T02:36:33;100033.06;;;-4.88;100.00
21504;BME280;10913;51.992;9.228;2022-12-13T02:39:09;100033.94;;;-4.87;100.00
21504;BME280;10913;51.992;9.228;2022-12-13T02:41:45;100033.94;;;-4.87;100.00
21504;BME280;10913;51.992;9.228;2022-12-13T02:44:23;100034.75;;;-4.88;100.00
21504;BME280;10913;51.992;9.228;2022-12-13T02:47:14;100034.84;;;-4.87;100.00
21504;BME280;10913;51.992;9.228;2022-12-13T02:49:47;100031.63;;;-4.82;100.00
21504;BME280;10913;51.992;9.228;2022-12-13T02:52:16;100035.88;;;-4.83;100.00
21504;BME280;10913;51.992;9.228;2022-12-13T02:54:42;100035.88;;;-4.83;100.00
21504;BME280;10913;51.992;9.228;2022-12-13T02:57:31;100042.81;;;-4.82;100.00
21504;BME280;10913;51.992;9.228;2022-12-13T03:00:10;100045.47;;;-4.80;100.00
21504;BME280;10913;51.992;9.228;2022-12-13T03:03:00;100040.31;;;-4.80;100.00
21504;BME280;10913;51.992;9.228;2022-12-13T03:08:53;100042.03;;;-4.79;100.00
21504;BME280;10913;51.992;9.228;2022-12-13T03:11:21;100049.78;;;-4.79;100.00
21504;BME280;10913;51.992;9.228;2022-12-13T03:13:58;100044.78;;;-4.76;100.00
21504;BME280;10913;51.992;9.228;2022-12-13T03:16:34;100043.09;;;-4.76;100.00
21504;BME280;10913;51.992;9.228;2022-12-13T03:19:04;100041.47;;;-4.74;100.00
21504;BME280;10913;51.992;9.228;2022-12-13T03:21:40;100035.44;;;-4.74;100.00
21504;BME280;10913;51.992;9.228;2022-12-13T03:24:06;100038.09;;;-4.73;100.00
21504;BME280;10913;51.992;9.228;2022-12-13T03:26:32;100044.19;;;-4.71;100.00
21504;BME280;10913;51.992;9.228;2022-12-13T03:28:57;100040.59;;;-4.74;100.00
21504;BME280;10913;51.992;9.228;2022-12-13T03:31:23;100043.09;;;-4.76;100.00
21504;BME280;10913;51.992;9.228;2022-12-13T03:33:48;100046.47;;;-4.77;100.00
21504;BME280;10913;51.992;9.228;2022-12-13T03:36:14;100044.84;;;-4.75;100.00
21504;BME280;10913;51.992;9.228;2022-12-13T03:38:40;100041.47;;;-4.74;100.00
21504;BME280;10913;51.992;9.228;2022-12-13T03:41:08;100048.22;;;-4.76;100.00
21504;BME280;10913;51.992;9.228;2022-12-13T03:43:35;100045.50;;;-4.79;100.00
21504;BME280;10913;51.992;9.228;2022-12-13T03:46:00;100042.88;;;-4.80;100.00
21504;BME280;10913;51.992;9.228;2022-12-13T03:48:26;100039.41;;;-4.81;100.00
21504;BME280;10913;51.992;9.228;2022-12-13T03:50:52;100035.16;;;-4.80;100.00
21504;BME280;10913;51.992;9.228;2022-12-13T03:53:18;100040.16;;;-4.83;100.00
21504;BME280;10913;51.992;9.228;2022-12-13T03:55:44;100039.41;;;-4.81;100.00
21504;BME280;10913;51.992;9.228;2022-12-13T03:58:09;100037.94;;;-4.76;100.00
21504;BME280;10913;51.992;9.228;2022-12-13T04:00:34;100037.78;;;-4.79;100.00
21504;BME280;10913;51.992;9.228;2022-12-13T04:03:00;100033.38;;;-4.81;100.00
21504;BME280;10913;51.992;9.228;2022-12-13T04:05:25;100033.59;;;-4.77;100.00
21504;BME280;10913;51.992;9.228;2022-12-13T04:07:50;100028.22;;;-4.81;100.00
21504;BME280;10913;51.992;9.228;2022-12-13T04:10:16;100032.34;;;-4.85;100.00
21504;BME280;10913;51.992;9.228;2022-12-13T04:12:41;100034.03;;;-4.86;100.00
21504;BME280;10913;51.992;9.228;2022-12-13T04:15:25;100034.69;;;-4.90;100.00
21504;BME280;10913;51.992;9.228;2022-12-13T04:17:50;100027.03;;;-4.88;100.00
21504;BME280;10913;51.992;9.228;2022-12-13T04:20:16;100016.72;;;-4.88;100.00
21504;BME280;10913;51.992;9.228;2022-12-13T04:22:41;100019.38;;;-4.87;100.00
21504;BME280;10913;51.992;9.228;2022-12-13T04:25:07;100013.50;;;-4.84;100.00
21504;BME280;10913;51.992;9.228;2022-12-13T04:27:32;100022.03;;;-4.85;100.00
21504;BME280;10913;51.992;9.228;2022-12-13T04:29:58;100019.53;;;-4.83;100.00
21504;BME280;10913;51.992;9.228;2022-12-13T04:32:23;100022.03;;;-4.85;100.00
21504;BME280;10913;51.992;9.228;2022-12-13T04:34:49;100020.44;;;-4.83;100.00
21504;BME280;10913;51.992;9.228;2022-12-13T04:37:14;100016.66;;;-4.90;100.00
21504;BME280;10913;51.992;9.228;2022-12-13T04:39:39;100014.81;;;-4.92;100.00
21504;BME280;10913;51.992;9.228;2022-12-13T04:42:04;100025.75;;;-4.96;100.00
21504;BME280;10913;51.992;9.228;2022-12-13T04:44:30;100022.28;;;-4.97;100.00
21504;BME280;10913;51.992;9.228;2022-12-13T04:46:56;100020.59;;;-4.96;100.00
21504;BME280;10913;51.992;9.228;2022-12-13T04:49:21;100027.44;;;-4.97;100.00
21504;BME280;10913;51.992;9.228;2022-12-13T04:51:47;100026.56;;;-4.97;100.00
21504;BME280;10913;51.992;9.228;2022-12-13T04:54:12;100021.56;;;-4.94;100.00
21504;BME280;10913;51.992;9.228;2022-12-13T04:56:37;100020.28;;;-4.86;100.00
21504;BME280;10913;51.992;9.228;2022-12-13T04:59:03;100023.00;;;-4.83;100.00
21504;BME280;10913;51.992;9.228;2022-12-13T05:01:28;100026.53;;;-4.81;100.00
21504;BME280;10913;51.992;9.228;2022-12-13T05:03:53;100029.75;;;-4.85;100.00
21504;BME280;10913;51.992;9.228;2022-12-13T05:06:19;100025.41;;;-4.86;100.00
21504;BME280;10913;51.992;9.228;2022-12-13T05:08:44;100022.75;;;-4.88;100.00
21504;BME280;10913;51.992;9.228;2022-12-13T05:11:10;100025.41;;;-4.86;100.00
21504;BME280;10913;51.992;9.228;2022-12-13T05:13:35;100021.88;;;-4.88;100.00
21504;BME280;10913;51.992;9.228;2022-12-13T05:16:04;100016.72;;;-4.88;100.00
21504;BME280;10913;51.992;9.228;2022-12-13T05:18:30;100019.22;;;-4.90;100.00
21504;BME280;10913;51.992;9.228;2022-12-13T05:20:56;100018.50;;;-4.87;100.00
21504;BME280;10913;51.992;9.228;2022-12-13T05:23:23;100023.06;;;-4.81;100.00
21504;BME280;10913;51.992;9.228;2022-12-13T05:25:50;100018.66;;;-4.84;100.00
21504;BME280;10913;51.992;9.228;2022-12-13T05:28:15;100022.91;;;-4.84;100.00
21504;BME280;10913;51.992;9.228;2022-12-13T05:30:41;100022.03;;;-4.85;100.00
21504;BME280;10913;51.992;9.228;2022-12-13T05:33:08;100020.28;;;-4.86;100.00
21504;BME280;10913;51.992;9.228;2022-12-13T05:35:35;100016.81;;;-4.87;100.00
21504;BME280;10913;51.992;9.228;2022-12-13T05:38:00;100019.53;;;-4.83;100.00
21504;BME280;10913;51.992;9.228;2022-12-13T05:40:27;100019.47;;;-4.85;100.00
21504;BME280;10913;51.992;9.228;2022-12-13T05:42:53;100012.47;;;-4.88;100.00
21504;BME280;10913;51.992;9.228;2022-12-13T05:45:19;100014.31;;;-4.85;100.00
21504;BME280;10913;51.992;9.228;2022-12-13T05:47:45;100014.16;;;-4.88;100.00
21504;BME280;10913;51.992;9.228;2022-12-13T05:50:12;100009.81;;;-4.89;100.00
21504;BME280;10913;51.992;9.228;2022-12-13T05:52:38;100009.88;;;-4.88;100.00
21504;BME280;10913;51.992;9.228;2022-12-13T05:55:03;100008.03;;;-4.90;100.00
21504;BME280;10913;51.992;9.228;2022-12-13T05:57:29;100008.69;;;-4.94;100.00
21504;BME280;10913;51.992;9.228;2022-12-13T05:59:54;100002.72;;;-4.93;100.00
21504;BME280;10913;51.992;9.228;2022-12-13T06:02:20;100008.75;;;-4.93;100.00
21504;BME280;10913;51.992;9.228;2022-12-13T06:04:45;100006.25;;;-4.91;100.00
21504;BME280;10913;51.992;9.228;2022-12-13T06:07:12;100004.66;;;-4.89;100.00
21504;BME280;10913;51.992;9.228;2022-12-13T06:09:37;100003.78;;;-4.90;100.00
21504;BME280;10913;51.992;9.228;2022-12-13T06:12:03;100009.66;;;-4.92;100.00
21504;BME280;10913;51.992;9.228;2022-12-13T06:14:28;100007.72;;;-4.96;100.00
21504;BME280;10913;51.992;9.228;2022-12-13T06:16:54;100011.09;;;-4.97;100.00
21504;BME280;10913;51.992;9.228;2022-12-13T06:19:20;100005.00;;;-4.99;100.00
21504;BME280;10913;51.992;9.228;2022-12-13T06:21:46;100000.44;;;-5.05;100.00
21504;BME280;10913;51.992;9.228;2022-12-13T06:24:16;100001.16;;;-5.07;100.00
21504;BME280;10913;51.992;9.228;2022-12-13T06:26:42;99998.28;;;-5.13;100.00
21504;BME280;10913;51.992;9.228;2022-12-13T06:29:08;99995.69;;;-5.13;100.00
21504;BME280;10913;51.992;9.228;2022-12-13T06:31:34;99993.78;;;-5.17;100.00
21504;BME280;10913;51.992;9.228;2022-12-13T06:34:00;99988.78;;;-5.14;100.00
21504;BME280;10913;51.992;9.228;2022-12-13T06:36:26;99998.72;;;-5.22;100.00
21504;BME280;10913;51.992;9.228;2022-12-13T06:38:51;99993.66;;;-5.21;100.00
21504;BME280;10913;51.992;9.228;2022-12-13T06:41:17;99997.09;;;-5.20;100.00
21504;BME280;10913;51.992;9.228;2022-12-13T06:43:43;99986.72;;;-5.22;100.00
21504;BME280;10913;51.992;9.228;2022-12-13T06:46:10;99990.25;;;-5.19;100.00
21504;BME280;10913;51.992;9.228;2022-12-13T06:48:35;99992.00;;;-5.18;100.00
21504;BME280;10913;51.992;9.228;2022-12-13T06:51:02;100001.66;;;-5.14;100.00
21504;BME280;10913;51.992;9.228;2022-12-13T06:53:28;100001.81;;;-5.11;100.00
21504;BME280;10913;51.992;9.228;2022-12-13T06:55:54;100002.78;;;-5.09;100.00
21504;BME280;10913;51.992;9.228;2022-12-13T06:58:19;100006.16;;;-5.10;100.00
21504;BME280;10913;51.992;9.228;2022-12-13T07:00:45;100009.63;;;-5.10;100.00
21504;BME280;10913;51.992;9.228;2022-12-13T07:03:10;100012.19;;;-5.10;100.00
21504;BME280;10913;51.992;9.228;2022-12-13T07:05:37;100008.56;;;-5.13;100.00
21504;BME280;10913;51.992;9.228;2022-12-13T07:08:02;100007.59;;;-5.15;100.00
21504;BME280;10913;51.992;9.228;2022-12-13T07:10:28;100013.28;;;-5.23;100.00
21504;BME280;10913;51.992;9.228;2022-12-13T07:12:53;100008.94;;;-5.24;100.00
21504;BME280;10913;51.992;9.228;2022-12-13T07:15:18;100014.88;;;-5.25;100.00
21504;BME280;10913;51.992;9.228;2022-12-13T07:17:48;100014.00;;;-5.25;100.00
21504;BME280;10913;51.992;9.228;2022-12-13T07:20:14;100017.47;;;-5.25;100.00
21504;BME280;10913;51.992;9.228;2022-12-13T07:22:40;100019.16;;;-5.25;100.00
21504;BME280;10913;51.992;9.228;2022-12-13T07:25:05;100012.31;;;-5.25;100.00
21504;BME280;10913;51.992;9.228;2022-12-13T07:27:32;100018.44;;;-5.23;100.00
21504;BME280;10913;51.992;9.228;2022-12-13T07:29:57;100008.84;;;-5.25;100.00
21504;BME280;10913;51.992;9.228;2022-12-13T07:32:23;100009.75;;;-5.25;100.00
21504;BME280;10913;51.992;9.228;2022-12-13T07:34:48;100015.84;;;-5.23;100.00
21504;BME280;10913;51.992;9.228;2022-12-13T07:37:15;100021.97;;;-5.21;100.00
21504;BME280;10913;51.992;9.228;2022-12-13T07:39:40;100023.56;;;-5.23;100.00
21504;BME280;10913;51.992;9.228;2022-12-13T07:42:06;100027.66;;;-5.26;100.00
21504;BME280;10913;51.992;9.228;2022-12-13T07:44:31;100034.28;;;-5.31;100.00
21504;BME280;10913;51.992;9.228;2022-12-13T07:46:56;100023.66;;;-5.37;100.00
21504;BME280;10913;51.992;9.228;2022-12-13T07:49:22;100025.41;;;-5.36;100.00
21504;BME280;10913;51.992;9.228;2022-12-13T07:51:47;100025.59;;;-5.33;100.00
21504;BME280;10913;51.992;9.228;2022-12-13T07:54:13;100023.09;;;-5.32;100.00
21504;BME280;10913;51.992;9.228;2022-12-13T07:56:38;100037.16;;;-5.25;100.00
21504;BME280;10913;51.992;9.228;2022-12-13T07:59:04;100032.56;;;-5.14;100.00
21504;BME280;10913;51.992;9.228;2022-12-13T08:01:32;100038.34;;;-5.02;100.00
21504;BME280;10913;51.992;9.228;2022-12-13T08:04:01;100035.25;;;-4.95;100.00
21504;BME280;10913;51.992;9.228;2022-12-13T08:06:26;100038.06;;;-4.91;100.00
21504;BME280;10913;51.992;9.228;2022-12-13T08:08:55;100039.09;;;-4.87;100.00
21504;BME280;10913;51.992;9.228;2022-12-13T08:11:21;100046.19;;;-4.83;100.00
21504;BME280;10913;51.992;9.228;2022-12-13T08:13:47;100045.88;;;-4.89;100.00
21504;BME280;10913;51.992;9.228;2022-12-13T08:16:13;100044.25;;;-4.87;100.00
21504;BME280;10913;51.992;9.228;2022-12-13T08:18:42;100042.31;;;-4.91;100.00
21504;BME280;10913;51.992;9.228;2022-12-13T08:21:08;100052.06;;;-4.86;100.00
21504;BME280;10913;51.992;9.228;2022-12-13T08:23:34;100051.34;;;-4.83;100.00
21504;BME280;10913;51.992;9.228;2022-12-13T08:26:01;100050.16;;;-4.72;100.00
21504;BME280;10913;51.992;9.228;2022-12-13T08:28:27;100055.78;;;-4.63;100.00
21504;BME280;10913;51.992;9.228;2022-12-13T08:30:52;100057.69;;;-4.59;100.00
21504;BME280;10913;51.992;9.228;2022-12-13T08:33:18;100054.44;;;-4.55;100.00
21504;BME280;10913;51.992;9.228;2022-12-13T08:35:44;100042.84;;;-4.46;100.00
21504;BME280;10913;51.992;9.228;2022-12-13T08:38:10;100048.72;;;-4.31;100.00
21504;BME280;10913;51.992;9.228;2022-12-13T08:40:36;100058.28;;;-4.11;99.28
21504;BME280;10913;51.992;9.228;2022-12-13T08:43:01;100054.00;;;-3.93;98.51
21504;BME280;10913;51.992;9.228;2022-12-13T08:45:28;100050.94;;;-3.47;97.27
21504;BME280;10913;51.992;9.228;2022-12-13T08:47:59;100052.59;;;-2.90;95.17
21504;BME280;10913;51.992;9.228;2022-12-13T08:50:25;100051.47;;;-2.55;92.05
21504;BME280;10913;51.992;9.228;2022-12-13T08:52:51;100043.50;;;-2.38;91.10
21504;BME280;10913;51.992;9.228;2022-12-13T08:55:17;100052.22;;;-2.36;90.58
21504;BME280;10913;51.992;9.228;2022-12-13T08:57:43;100052.22;;;-2.57;89.92
21504;BME280;10913;51.992;9.228;2022-12-13T09:00:15;100057.31;;;-2.80;90.50
21504;BME280;10913;51.992;9.228;2022-12-13T09:02:40;100052.75;;;-3.06;91.22
21504;BME280;10913;51.992;9.228;2022-12-13T09:05:06;100056.09;;;-3.28;91.96
21504;BME280;10913;51.992;9.228;2022-12-13T09:07:32;100057.28;;;-3.20;92.60
21504;BME280;10913;51.992;9.228;2022-12-13T09:09:59;100072.66;;;-2.84;91.87
21504;BME280;10913;51.992;9.228;2022-12-13T09:12:25;100069.16;;;-2.45;90.28
21504;BME280;10913;51.992;9.228;2022-12-13T09:14:50;100065.56;;;-2.05;88.98
21504;BME280;10913;51.992;9.228;2022-12-13T09:17:15;100061.38;;;-1.57;87.50
21504;BME280;10913;51.992;9.228;2022-12-13T09:19:41;100051.81;;;-1.12;85.32
21504;BME280;10913;51.992;9.228;2022-12-13T09:22:06;100050.59;;;-0.97;83.27
21504;BME280;10913;51.992;9.228;2022-12-13T09:24:32;100054.69;;;-0.80;82.24
21504;BME280;10913;51.992;9.228;2022-12-13T09:26:57;100049.50;;;-0.80;80.34
21504;BME280;10913;51.992;9.228;2022-12-13T09:29:23;100045.56;;;-0.93;80.70
21504;BME280;10913;51.992;9.228;2022-12-13T09:31:51;100040.16;;;-1.00;80.11
21504;BME280;10913;51.992;9.228;2022-12-13T09:34:17;100043.44;;;-1.05;80.68
21504;BME280;10913;51.992;9.228;2022-12-13T09:36:42;100048.69;;;-0.78;80.36
21504;BME280;10913;51.992;9.228;2022-12-13T09:39:07;100058.19;;;-0.27;79.27
21504;BME280;10913;51.992;9.228;2022-12-13T09:41:41;100046.81;;;0.24;76.96
21504;BME280;10913;51.992;9.228;2022-12-13T09:44:22;100049.00;;;0.69;76.67
21504;BME280;10913;51.992;9.228;2022-12-13T09:46:49;100056.81;;;0.69;75.14
21504;BME280;10913;51.992;9.228;2022-12-13T09:51:51;100055.56;;;-0.27;76.96
21504;BME280;10913;51.992;9.228;2022-12-13T09:54:20;100055.38;;;-0.60;78.00
21504;BME280;10913;51.992;9.228;2022-12-13T09:56:50;100052.53;;;-0.66;79.23
21504;BME280;10913;51.992;9.228;2022-12-13T09:59:27;100048.84;;;-0.48;79.69
21504;BME280;10913;51.992;9.228;2022-12-13T10:01:55;100041.75;;;0.00;78.71
21504;BME280;10913;51.992;9.228;2022-12-13T10:04:22;100035.56;;;0.54;76.90
21504;BME280;10913;51.992;9.228;2022-12-13T10:06:52;100036.00;;;1.00;75.78
21504;BME280;10913;51.992;9.228;2022-12-13T10:09:18;100035.25;;;1.36;74.00
21504;BME280;10913;51.992;9.228;2022-12-13T10:11:48;100036.63;;;1.56;73.38
21504;BME280;10913;51.992;9.228;2022-12-13T10:14:24;100024.94;;;1.75;73.29
21504;BME280;10913;51.992;9.228;2022-12-13T10:16:54;100026.59;;;2.09;73.57
21504;BME280;10913;51.992;9.228;2022-12-13T10:19:35;100027.53;;;2.52;72.96
21504;BME280;10913;51.992;9.228;2022-12-13T10:22:02;100021.63;;;2.59;71.75
21504;BME280;10913;51.992;9.228;2022-12-13T10:30:19;99995.22;;;2.45;71.53
21504;BME280;10913;51.992;9.228;2022-12-13T10:32:59;100000.09;;;2.28;71.39
21504;BME280;10913;51.992;9.228;2022-12-13T10:37:50;100001.84;;;2.70;72.32
21504;BME280;10913;51.992;9.228;2022-12-13T10:40:39;100004.13;;;2.98;71.63
21504;BME280;10913;51.992;9.228;2022-12-13T10:45:32;99989.25;;;2.93;70.15
21504;BME280;10913;51.992;9.228;2022-12-13T10:47:58;99995.94;;;2.79;69.49
21504;BME280;10913;51.992;9.228;2022-12-13T10:50:26;99994.03;;;2.71;70.77
21504;BME280;10913;51.992;9.228;2022-12-13T10:52:53;99988.03;;;2.75;70.45
21504;BME280;10913;51.992;9.228;2022-12-13T10:55:29;99986.59;;;2.91;69.93
21504;BME280;10913;51.992;9.228;2022-12-13T10:58:03;99989.94;;;2.84;69.96
21504;BME280;10913;51.992;9.228;2022-12-13T11:00:42;99987.25;;;2.80;70.00
21504;BME280;10913;51.992;9.228;2022-12-13T11:03:13;99988.59;;;2.61;70.62
21504;BME280;10913;51.992;9.228;2022-12-13T11:06:01;99987.72;;;2.59;71.16
21504;BME280;10913;51.992;9.228;2022-12-13T11:08:27;99983.38;;;2.59;70.33
21504;BME280;10913;51.992;9.228;2022-12-13T11:11:04;99975.53;;;2.58;70.49
21504;BME280;10913;51.992;9.228;2022-12-13T11:16:24;99972.38;;;2.74;70.50
21504;BME280;10913;51.992;9.228;2022-12-13T11:18:58;99955.84;;;2.73;70.46
21504;BME280;10913;51.992;9.228;2022-12-13T11:21:28;99950.53;;;2.69;71.04
21504;BME280;10913;51.992;9.228;2022-12-13T11:23:56;99946.28;;;2.74;70.83
21504;BME280;10913;51.992;9.228;2022-12-13T11:26:23;99943.47;;;2.65;70.60
21504;BME280;10913;51.992;9.228;2022-12-13T11:37:29;99921.06;;;2.29;72.31
21504;BME280;10913;51.992;9.228;2022-12-13T11:40:05;99907.88;;;1.80;72.75
21504;BME280;10913;51.992;9.228;2022-12-13T11:45:20;99897.88;;;1.60;74.65
21504;BME280;10913;51.992;9.228;2022-12-13T11:47:58;99902.44;;;1.70;74.89
21504;BME280;10913;51.992;9.228;2022-12-13T11:50:34;99897.59;;;1.87;74.84
21504;BME280;10913;51.992;9.228;2022-12-13T11:58:51;99895.41;;;2.07;73.65
21504;BME280;10913;51.992;9.228;2022-12-13T12:01:23;99892.09;;;2.14;74.14
21504;BME280;10913;51.992;9.228;2022-12-13T12:03:58;99896.34;;;2.09;73.61
21504;BME280;10913;51.992;9.228;2022-12-13T12:06:31;99891.19;;;2.12;74.19
21504;BME280;10913;51.992;9.228;2022-12-13T12:09:01;99886.03;;;2.15;74.27
21504;BME280;10913;51.992;9.228;2022-12-13T12:11:30;99887.47;;;2.01;74.22
21504;BME280;10913;51.992;9.228;2022-12-13T12:16:50;99880.13;;;1.82;75.31
21504;BME280;10913;51.992;9.228;2022-12-13T12:19:22;99886.16;;;1.81;75.50
21504;BME280;10913;51.992;9.228;2022-12-13T12:28:26;99887.03;;;1.80;75.47
21504;BME280;10913;51.992;9.228;2022-12-13T12:31:07;99881.56;;;1.67;76.12
21504;BME280;10913;51.992;9.228;2022-12-13T12:37:58;99878.84;;;1.63;76.49
21504;BME280;10913;51.992;9.228;2022-12-13T12:42:54;99876.63;;;1.42;76.82
21504;BME280;10913;51.992;9.228;2022-12-13T12:45:32;99881.44;;;1.25;77.61
21504;BME280;10913;51.992;9.228;2022-12-13T12:48:19;99871.84;;;1.23;77.96
21504;BME280;10913;51.992;9.228;2022-12-13T12:51:09;99870.75;;;1.13;78.60
21504;BME280;10913;51.992;9.228;2022-12-13T13:02:16;99857.94;;;0.52;80.66
21504;BME280;10913;51.992;9.228;2022-12-13T13:04:51;99853.06;;;0.31;81.37
21504;BME280;10913;51.992;9.228;2022-12-13T13:07:27;99852.00;;;0.24;82.20
21504;BME280;10913;51.992;9.228;2022-12-13T13:09:56;99849.50;;;0.27;82.58
21504;BME280;10913;51.992;9.228;2022-12-13T13:12:23;99851.44;;;0.34;82.86
21504;BME280;10913;51.992;9.228;2022-12-13T13:14:49;99843.28;;;0.22;82.82
21504;BME280;10913;51.992;9.228;2022-12-13T13:19:44;99836.66;;;0.02;83.49
21504;BME280;10913;51.992;9.228;2022-12-13T13:22:39;99844.31;;;-0.04;83.95
21504;BME280;10913;51.992;9.228;2022-12-13T13:27:31;99841.44;;;-0.13;84.84
21504;BME280;10913;51.992;9.228;2022-12-13T13:30:05;99843.13;;;-0.15;84.97
21504;BME280;10913;51.992;9.228;2022-12-13T13:32:31;99837.78;;;-0.20;85.25
21504;BME280;10913;51.992;9.228;2022-12-13T13:37:53;99835.72;;;-0.31;85.63
21504;BME280;10913;51.992;9.228;2022-12-13T13:40:30;99840.66;;;-0.41;85.93
21504;BME280;10913;51.992;9.228;2022-12-13T13:45:57;99844.53;;;-0.55;86.79
21504;BME280;10913;51.992;9.228;2022-12-13T13:57:23;99846.47;;;-1.05;89.11
21504;BME280;10913;51.992;9.228;2022-12-13T14:00:18;99853.97;;;-1.12;89.72
21504;BME280;10913;51.992;9.228;2022-12-13T14:11:02;99860.16;;;-1.34;91.00
21504;BME280;10913;51.992;9.228;2022-12-13T14:29:52;99876.28;;;-1.68;92.35
21504;BME280;10913;51.992;9.228;2022-12-13T14:32:24;99879.63;;;-1.70;92.63
21504;BME280;10913;51.992;9.228;2022-12-13T14:34:51;99880.34;;;-1.75;92.96
21504;BME280;10913;51.992;9.228;2022-12-13T14:37:34;99880.44;;;-1.71;92.92
21504;BME280;10913;51.992;9.228;2022-12-13T14:40:24;99884.81;;;-1.70;92.68
21504;BME280;10913;51.992;9.228;2022-12-13T14:42:51;99880.44;;;-1.71;92.63
21504;BME280;10913;51.992;9.228;2022-12-13T14:45:34;99877.75;;;-1.75;92.49
21504;BME280;10913;51.992;9.228;2022-12-13T14:48:04;99885.41;;;-1.78;92.62
21504;BME280;10913;51.992;9.228;2022-12-13T14:50:32;99885.31;;;-1.81;92.67
21504;BME280;10913;51.992;9.228;2022-12-13T14:52:59;99885.22;;;-1.84;92.70
21504;BME280;10913;51.992;9.228;2022-12-13T14:55:35;99874.75;;;-1.87;92.89